Terminal Aerodrome Forecast
Issued by NWS Jackson, MS

Home | Current Version | Previous Version | Text Only | Print | Product List | Glossary On
Versions: 1 2 3 4 5 6 7 8 9 10 11 12 13 14 15 16 17 18 19
105
FTUS44 KJAN 261906 AAA
TAFHBG
TAF AMD
KHBG 261906Z 2619/2718 14008G16KT P6SM -SHRA VCTS FEW025 SCT050
      BKN080CB
     FM270300 15005KT 6SM BR VCSH SCT009 BKN019 BKN030
     FM270700 15004KT 5SM BR VCSH BKN008 OVC019
     FM271500 17006KT 6SM BR VCTS BKN015 BKN030CB=

USA.gov is the U.S. government's official web portal to all federal, state and local government web resources and services.